Terminal Aerodrome Forecast
Issued by NWS Grand Forks, ND

Home | Current Version | Previous Version | Text Only | Print | Product List | Glossary On
Versions: 1 2 3 4 5 6 7 8 9 10 11 12 13 14 15 16 17 18
000
FTUS43 KFGF 301738
TAFGFK
TAF
KGFK 301738Z 3018/0118 16013KT P6SM BKN200
     FM010600 15008KT P6SM BKN040
     FM010700 15008KT P6SM BKN003
     FM011400 15007KT P6SM BKN120=

USA.gov is the U.S. government's official web portal to all federal, state and local government web resources and services.